Amis Wisdom II — 3FGI2 — position and weather

sailwx.info

Track history (hours):
 
Tides and Currents Weather Stations Pressure Air Temp Water Temp Dewpoint Dewpoint Depression Visibility Wind Speed Wind Dir Waves Ship Positions

Amis Wisdom II

Last reported at 2014-Oct-22 01:27 UTC. Time now 2014-Oct-26 04:24 UTC.
Position N 48°58' W 126°53'.

Length 200 m; draft 12.6 m.

Type: Cargo ship. MMSI: 357086000.

Date/timePositionNaut miles runAvg speedWind from/ knotsBaromVisibWave heightAir tempDewpointWater temp
2014-Oct-22 01:27N 48°58' W 126°53'12 9.2
2014-Oct-22 00:11N 48°54' W 126°36'7 8.5
2014-Oct-21 23:20N 48°50' W 126°27'6 8.0
2014-Oct-21 22:33N 48°47' W 126°18'8 7.7
2014-Oct-21 21:33N 48°44' W 126°08'8 8.0
2014-Oct-21 20:33N 48°41' W 125°57'9 9.4
2014-Oct-21 19:33N 48°37' W 125°44'9 9.4
2014-Oct-21 18:33N 48°33' W 125°31'9 8.9
2014-Oct-21 17:33N 48°31' W 125°18'9 9.4
2014-Oct-21 16:33N 48°31' W 125°04'19 9.4
2014-Oct-21 14:33N 48°28' W 124°36'1110.8
2014-Oct-21 13:33N 48°24' W 124°21'1111.5
2014-Oct-21 12:33N 48°19' W 124°05'1111.0
2014-Oct-21 11:33N 48°17' W 123°48'1010.2
2014-Oct-21 10:33N 48°15' W 123°33'9 8.9
2014-Oct-21 09:33N 48°22' W 123°25'8 8.4
2014-Oct-21 08:33N 48°25' W 123°12'1111.2
2014-Oct-21 07:33N 48°36' W 123°14'9 9.2
2014-Oct-21 06:33N 48°44' W 123°08'8 7.6
2014-Oct-21 05:33N 48°52' W 123°05'1212.3
2014-Oct-21 04:33N 49°00' W 123°19'1110.6
2014-Oct-21 03:33N 49°10' W 123°22'1010.1
2014-Oct-21 02:33N 49°19' W 123°14'7 6.7
2014-Oct-21 01:34N 49°17' W 123°04'0 0.1
2014-Oct-21 00:34N 49°17' W 123°04'0 0.0
2014-Oct-20 23:33N 49°17' W 123°04'0 0.0
2014-Oct-20 22:30N 49°17' W 123°04'0 0.0
2014-Oct-20 21:33N 49°17' W 123°04'0 0.0
2014-Oct-20 20:33N 49°17' W 123°04'0 0.0
2014-Oct-20 19:33N 49°17' W 123°04'0 0.0
2014-Oct-20 18:30N 49°17' W 123°04'0 0.0
2014-Oct-20 17:33N 49°17' W 123°04'0 0.0
2014-Oct-20 16:33N 49°17' W 123°04'0 0.0
2014-Oct-20 15:33N 49°17' W 123°04'0 0.0
2014-Oct-20 14:33N 49°17' W 123°04'0 0.0
2014-Oct-20 13:33N 49°17' W 123°04'0 0.0
2014-Oct-20 12:33N 49°17' W 123°04'0 0.0
2014-Oct-20 11:33N 49°17' W 123°04'0 0.0
2014-Oct-20 10:33N 49°17' W 123°04'0 0.0
2014-Oct-20 09:33N 49°17' W 123°04'0 0.0
2014-Oct-20 08:33N 49°17' W 123°04'0 0.0
2014-Oct-20 07:33N 49°17' W 123°04'0 0.0
2014-Oct-20 06:33N 49°17' W 123°04'0 0.0
2014-Oct-20 05:33N 49°17' W 123°04'0 0.0
2014-Oct-20 04:33N 49°17' W 123°04'0 0.0
2014-Oct-20 03:33N 49°17' W 123°04'0 0.0
2014-Oct-20 02:33N 49°17' W 123°04'0 0.0
2014-Oct-20 01:33N 49°17' W 123°04'0 0.0
2014-Oct-20 00:33N 49°17' W 123°04'0 0.0
2014-Oct-19 23:33N 49°17' W 123°04'0 0.0
2014-Oct-19 22:33N 49°17' W 123°04'0 0.0
2014-Oct-19 21:33N 49°17' W 123°04'0 0.0
2014-Oct-19 20:33N 49°17' W 123°04'0 0.0
2014-Oct-19 19:33N 49°17' W 123°04'0 0.0
2014-Oct-19 18:33N 49°17' W 123°04'0 0.0
2014-Oct-19 17:33N 49°17' W 123°04'0 0.0
2014-Oct-19 16:33N 49°17' W 123°04'0 0.0
2014-Oct-19 15:33N 49°17' W 123°04'0 0.0
2014-Oct-19 14:33N 49°17' W 123°04'0 0.0
2014-Oct-19 13:33N 49°17' W 123°04'0 0.0
2014-Oct-19 12:33N 49°17' W 123°04'0 0.0
2014-Oct-19 11:33N 49°17' W 123°04'0 0.0
2014-Oct-19 10:33N 49°17' W 123°04'0 0.0
2014-Oct-19 09:33N 49°17' W 123°04'0 0.0
2014-Oct-19 08:33N 49°17' W 123°04'0 0.0
2014-Oct-19 07:33N 49°17' W 123°04'0 0.0
2014-Oct-19 06:33N 49°17' W 123°04'0 0.0
2014-Oct-19 05:33N 49°17' W 123°04'0 0.0
2014-Oct-19 04:33N 49°17' W 123°04'0 0.0
2014-Oct-19 03:33N 49°17' W 123°04'0 0.0
2014-Oct-19 02:33N 49°17' W 123°04'0 0.0
2014-Oct-19 01:33N 49°17' W 123°04'0 0.0
2014-Oct-19 00:33N 49°17' W 123°04'0 0.0
2014-Oct-18 23:33N 49°17' W 123°04'0 0.0
2014-Oct-18 22:33N 49°17' W 123°04'0 0.0
2014-Oct-18 21:33N 49°17' W 123°04'0 0.0
2014-Oct-18 20:33N 49°17' W 123°04'0 0.0
2014-Oct-18 19:33N 49°17' W 123°04'0 0.0
2014-Oct-18 18:33N 49°17' W 123°04'0 0.0
2014-Oct-18 17:33N 49°17' W 123°04'0 0.0
2014-Oct-18 16:33N 49°17' W 123°04'0 0.0
2014-Oct-18 15:33N 49°17' W 123°04'0 0.0
2014-Oct-18 14:33N 49°17' W 123°04'0 0.0
2014-Oct-18 13:33N 49°17' W 123°04'0 0.0
2014-Oct-18 12:33N 49°17' W 123°04'0 0.0
2014-Oct-18 11:33N 49°17' W 123°04'0 0.0
2014-Oct-18 10:33N 49°17' W 123°04'0 0.0
2014-Oct-18 09:33N 49°17' W 123°04'0 0.0
2014-Oct-18 08:33N 49°17' W 123°04'0 0.0
2014-Oct-18 07:33N 49°17' W 123°04'0 0.0
2014-Oct-18 06:33N 49°17' W 123°04'0 0.0
2014-Oct-18 05:33N 49°17' W 123°04'0 0.0
2014-Oct-18 04:33N 49°17' W 123°04'0 0.0
2014-Oct-18 03:33N 49°17' W 123°04'0 0.0
2014-Oct-18 02:33N 49°17' W 123°04'0 0.0
2014-Oct-18 01:33N 49°17' W 123°04'0 0.0
2014-Oct-18 00:33N 49°17' W 123°04'0 0.0
2014-Oct-17 23:33N 49°17' W 123°04'0 0.0
2014-Oct-17 22:33N 49°17' W 123°04'0 0.0
2014-Oct-17 21:33N 49°17' W 123°04'0 0.0
2014-Oct-17 20:33N 49°17' W 123°04'0 0.0
2014-Oct-17 19:33N 49°17' W 123°04'0 0.0
2014-Oct-17 18:33N 49°17' W 123°04'0 0.0
2014-Oct-17 17:33N 49°17' W 123°04'0 0.0
2014-Oct-17 16:33N 49°17' W 123°04'0 0.0
2014-Oct-17 15:33N 49°17' W 123°04'0 0.0
2014-Oct-17 14:33N 49°17' W 123°04'0 0.0
2014-Oct-17 13:33N 49°17' W 123°04'0 0.0
2014-Oct-17 12:33N 49°17' W 123°04'0 0.0
2014-Oct-17 11:33N 49°17' W 123°04'0 0.0
2014-Oct-17 10:33N 49°17' W 123°04'0 0.0
2014-Oct-17 09:33N 49°17' W 123°04'0 0.0
2014-Oct-17 08:33N 49°17' W 123°04'0 0.0
2014-Oct-17 07:33N 49°17' W 123°04'0 0.0
2014-Oct-17 06:33N 49°17' W 123°04'0 0.0
2014-Oct-17 05:33N 49°17' W 123°04'0 0.0
2014-Oct-17 04:33N 49°17' W 123°04'0 0.0
2014-Oct-17 03:33N 49°17' W 123°04'0 0.0
2014-Oct-17 02:33N 49°17' W 123°04'0 0.0
2014-Oct-17 01:33N 49°17' W 123°04'0 0.0
2014-Oct-17 00:33N 49°17' W 123°04'0 0.0
2014-Oct-16 23:33N 49°17' W 123°04'0 0.0
2014-Oct-16 22:33N 49°17' W 123°04'0 0.0
2014-Oct-16 21:30N 49°17' W 123°04'0 0.0
2014-Oct-16 20:33N 49°17' W 123°04'0 0.0
2014-Oct-16 19:33N 49°17' W 123°04'2 2.4
2014-Oct-16 18:33N 49°18' W 123°07'2 2.2
2014-Oct-16 17:31N 49°18' W 123°11'0 0.0
2014-Oct-16 16:31N 49°18' W 123°11'0 0.1
2014-Oct-16 15:31N 49°18' W 123°11'0 0.0
2014-Oct-16 14:31N 49°18' W 123°11'0 0.1
2014-Oct-16 13:31N 49°18' W 123°11'0 0.0
2014-Oct-16 12:31N 49°18' W 123°11'0 0.0
2014-Oct-16 11:31N 49°18' W 123°11'0 0.0
2014-Oct-16 10:31N 49°18' W 123°11'0 0.0
2014-Oct-16 09:31N 49°18' W 123°11'0 0.0
2014-Oct-16 08:31N 49°18' W 123°11'0 0.0
2014-Oct-16 07:31N 49°18' W 123°11'0 0.1
2014-Oct-16 06:25N 49°18' W 123°11'0 0.0
2014-Oct-16 05:31N 49°18' W 123°11'0 0.0
2014-Oct-16 04:31N 49°18' W 123°11'0 0.0
2014-Oct-16 03:31N 49°18' W 123°11'0 0.0
2014-Oct-16 02:31N 49°18' W 123°11'0 0.0
2014-Oct-16 01:31N 49°18' W 123°11'0 0.1
2014-Oct-16 00:31N 49°18' W 123°11'0 0.1
2014-Oct-15 23:31N 49°18' W 123°11'0 0.1
2014-Oct-15 22:31N 49°18' W 123°11'0 0.0
2014-Oct-15 21:31N 49°18' W 123°11'0 0.0
2014-Oct-15 20:31N 49°18' W 123°11'0 0.0
2014-Oct-15 19:31N 49°18' W 123°11'0 0.1
2014-Oct-15 18:31N 49°18' W 123°11'0 0.1
2014-Oct-15 17:31N 49°18' W 123°11'0 0.0
2014-Oct-15 16:31N 49°18' W 123°11'0 0.0
2014-Oct-15 15:31N 49°18' W 123°11'0 0.0
2014-Oct-15 14:31N 49°18' W 123°11'0 0.1
2014-Oct-15 13:31N 49°18' W 123°11'0 0.1
2014-Oct-15 12:31N 49°18' W 123°11'0 0.1
2014-Oct-15 11:22N 49°18' W 123°11'0 0.0
2014-Oct-15 10:31N 49°18' W 123°11'0 0.1
2014-Oct-15 09:31N 49°18' W 123°11'0 0.0
2014-Oct-15 08:31N 49°18' W 123°11'0 0.0
2014-Oct-15 07:31N 49°18' W 123°11'0 0.1
2014-Oct-15 06:31N 49°18' W 123°11'0 0.0
2014-Oct-15 05:31N 49°18' W 123°11'0 0.0
2014-Oct-15 04:31N 49°18' W 123°11'0 0.0
2014-Oct-15 03:31N 49°18' W 123°11'0 0.0
2014-Oct-15 02:31N 49°18' W 123°11'0 0.0
2014-Oct-15 01:28N 49°18' W 123°11'0 0.2
2014-Oct-15 00:28N 49°18' W 123°11'0 0.1
2014-Oct-14 23:31N 49°18' W 123°11'0 0.0
2014-Oct-14 22:31N 49°18' W 123°11'0 0.1
2014-Oct-14 21:31N 49°18' W 123°11'0 0.0
2014-Oct-14 20:31N 49°18' W 123°11'0 0.0
2014-Oct-14 19:31N 49°18' W 123°11'0 0.0
2014-Oct-14 18:31N 49°18' W 123°11'0 0.0
2014-Oct-14 17:31N 49°18' W 123°11'0 0.1
2014-Oct-14 16:31N 49°18' W 123°11'0 0.1
2014-Oct-14 15:31N 49°18' W 123°11'0 0.0
2014-Oct-14 14:31N 49°18' W 123°11'0 0.1
2014-Oct-14 13:31N 49°18' W 123°11'0 0.1
2014-Oct-14 12:31N 49°18' W 123°11'0 0.1
2014-Oct-14 11:31N 49°18' W 123°11'0 0.1
2014-Oct-14 10:31N 49°18' W 123°11'0 0.0
2014-Oct-14 09:31N 49°18' W 123°11'0 0.0
2014-Oct-14 08:31N 49°18' W 123°11'0 0.0
2014-Oct-14 07:31N 49°18' W 123°11'0 0.1
2014-Oct-14 06:31N 49°18' W 123°11'0 0.0
2014-Oct-14 05:31N 49°18' W 123°11'0 0.1
2014-Oct-14 04:31N 49°18' W 123°11'0 0.1
2014-Oct-14 03:31N 49°18' W 123°11'0 0.1
2014-Oct-14 02:31N 49°18' W 123°11'0 0.0
2014-Oct-14 01:31N 49°18' W 123°11'0 0.0
2014-Oct-14 00:31N 49°18' W 123°11'0 0.0
2014-Oct-13 23:31N 49°18' W 123°11'0 0.0
2014-Oct-13 22:31N 49°18' W 123°11'0 0.0
2014-Oct-13 21:31N 49°18' W 123°11'0 0.0
2014-Oct-13 20:31N 49°18' W 123°11'0 0.0
2014-Oct-13 19:31N 49°18' W 123°11'0 0.0
2014-Oct-13 18:31N 49°18' W 123°11'0 0.1
2014-Oct-13 17:31N 49°18' W 123°11'0 0.1
2014-Oct-13 16:31N 49°18' W 123°11'0 0.1
2014-Oct-13 15:31N 49°18' W 123°11'0 0.0
2014-Oct-13 14:31N 49°18' W 123°11'0 0.0
2014-Oct-13 13:31N 49°18' W 123°11'0 0.0
2014-Oct-13 12:31N 49°18' W 123°11'0 0.0
2014-Oct-13 11:31N 49°18' W 123°11'0 0.1
2014-Oct-13 10:31N 49°18' W 123°11'0 0.1
2014-Oct-13 09:31N 49°18' W 123°11'0 0.0
2014-Oct-13 08:31N 49°18' W 123°11'0 0.1
2014-Oct-13 07:31N 49°18' W 123°11'0 0.0
2014-Oct-13 06:31N 49°18' W 123°11'0 0.0
2014-Oct-13 05:31N 49°18' W 123°11'0 0.0
2014-Oct-13 04:31N 49°18' W 123°11'0 0.0
2014-Oct-13 03:31N 49°18' W 123°11'0 0.1
2014-Oct-13 02:31N 49°18' W 123°11'0 0.0
2014-Oct-13 01:31N 49°18' W 123°11'0 0.0
2014-Oct-13 00:31N 49°18' W 123°11'0 0.0
2014-Oct-12 23:31N 49°18' W 123°11'0 0.1
2014-Oct-12 22:31N 49°18' W 123°11'0 0.2
2014-Oct-12 21:31N 49°18' W 123°11'0 0.0
2014-Oct-12 20:31N 49°18' W 123°11'0 0.1
2014-Oct-12 19:31N 49°18' W 123°11'0 0.0
2014-Oct-12 18:31N 49°18' W 123°11'0 0.0
2014-Oct-12 17:31N 49°18' W 123°11'0 0.1
2014-Oct-12 16:31N 49°18' W 123°11'0 0.1
2014-Oct-12 15:31N 49°18' W 123°11'0 0.0
2014-Oct-12 14:31N 49°18' W 123°11'0 0.0
2014-Oct-12 13:31N 49°18' W 123°11'0 0.0
2014-Oct-12 12:31N 49°18' W 123°11'0 0.0
2014-Oct-12 11:31N 49°18' W 123°11'0 0.0
2014-Oct-12 10:31N 49°18' W 123°11'0 0.0
2014-Oct-12 09:31N 49°18' W 123°11'0 0.1
2014-Oct-12 08:31N 49°18' W 123°11'0 0.1
2014-Oct-12 07:31N 49°18' W 123°11'0 0.1
2014-Oct-12 06:31N 49°18' W 123°11'0 0.1
2014-Oct-12 05:31N 49°18' W 123°11'0 0.1
2014-Oct-12 04:28N 49°18' W 123°11'0 0.0
2014-Oct-12 03:31N 49°18' W 123°11'0 0.0
2014-Oct-12 02:31N 49°18' W 123°11'0 0.0
2014-Oct-12 01:31N 49°18' W 123°11'  
Track history (hours):
 
Tides and Currents Weather Stations Pressure Air Temp Water Temp Dewpoint Dewpoint Depression Visibility Wind Speed Wind Dir Waves Ship Positions

Amis Wisdom II

Last reported at 2014-Oct-22 01:27 UTC. Time now 2014-Oct-26 04:24 UTC.
Position N 48°58' W 126°53'.

Length 200 m; draft 12.6 m.

Type: Cargo ship. MMSI: 357086000.

Date/timePositionNaut miles runAvg speedWind from/ knotsBaromVisibWave heightAir tempDewpointWater temp
2014-Oct-22 01:27N 48°58' W 126°53'12 9.2
2014-Oct-22 00:11N 48°54' W 126°36'7 8.5
2014-Oct-21 23:20N 48°50' W 126°27'6 8.0
2014-Oct-21 22:33N 48°47' W 126°18'8 7.7
2014-Oct-21 21:33N 48°44' W 126°08'8 8.0
2014-Oct-21 20:33N 48°41' W 125°57'9 9.4
2014-Oct-21 19:33N 48°37' W 125°44'9 9.4
2014-Oct-21 18:33N 48°33' W 125°31'9 8.9
2014-Oct-21 17:33N 48°31' W 125°18'9 9.4
2014-Oct-21 16:33N 48°31' W 125°04'19 9.4
2014-Oct-21 14:33N 48°28' W 124°36'1110.8
2014-Oct-21 13:33N 48°24' W 124°21'1111.5
2014-Oct-21 12:33N 48°19' W 124°05'1111.0
2014-Oct-21 11:33N 48°17' W 123°48'1010.2
2014-Oct-21 10:33N 48°15' W 123°33'9 8.9
2014-Oct-21 09:33N 48°22' W 123°25'8 8.4
2014-Oct-21 08:33N 48°25' W 123°12'1111.2
2014-Oct-21 07:33N 48°36' W 123°14'9 9.2
2014-Oct-21 06:33N 48°44' W 123°08'8 7.6
2014-Oct-21 05:33N 48°52' W 123°05'1212.3
2014-Oct-21 04:33N 49°00' W 123°19'1110.6
2014-Oct-21 03:33N 49°10' W 123°22'1010.1
2014-Oct-21 02:33N 49°19' W 123°14'7 6.7
2014-Oct-21 01:34N 49°17' W 123°04'0 0.1
2014-Oct-21 00:34N 49°17' W 123°04'0 0.0
2014-Oct-20 23:33N 49°17' W 123°04'0 0.0
2014-Oct-20 22:30N 49°17' W 123°04'0 0.0
2014-Oct-20 21:33N 49°17' W 123°04'0 0.0
2014-Oct-20 20:33N 49°17' W 123°04'0 0.0
2014-Oct-20 19:33N 49°17' W 123°04'0 0.0
2014-Oct-20 18:30N 49°17' W 123°04'0 0.0
2014-Oct-20 17:33N 49°17' W 123°04'0 0.0
2014-Oct-20 16:33N 49°17' W 123°04'0 0.0
2014-Oct-20 15:33N 49°17' W 123°04'0 0.0
2014-Oct-20 14:33N 49°17' W 123°04'0 0.0
2014-Oct-20 13:33N 49°17' W 123°04'0 0.0
2014-Oct-20 12:33N 49°17' W 123°04'0 0.0
2014-Oct-20 11:33N 49°17' W 123°04'0 0.0
2014-Oct-20 10:33N 49°17' W 123°04'0 0.0
2014-Oct-20 09:33N 49°17' W 123°04'0 0.0
2014-Oct-20 08:33N 49°17' W 123°04'0 0.0
2014-Oct-20 07:33N 49°17' W 123°04'0 0.0
2014-Oct-20 06:33N 49°17' W 123°04'0 0.0
2014-Oct-20 05:33N 49°17' W 123°04'0 0.0
2014-Oct-20 04:33N 49°17' W 123°04'0 0.0
2014-Oct-20 03:33N 49°17' W 123°04'0 0.0
2014-Oct-20 02:33N 49°17' W 123°04'0 0.0
2014-Oct-20 01:33N 49°17' W 123°04'0 0.0
2014-Oct-20 00:33N 49°17' W 123°04'0 0.0
2014-Oct-19 23:33N 49°17' W 123°04'0 0.0
2014-Oct-19 22:33N 49°17' W 123°04'0 0.0
2014-Oct-19 21:33N 49°17' W 123°04'0 0.0
2014-Oct-19 20:33N 49°17' W 123°04'0 0.0
2014-Oct-19 19:33N 49°17' W 123°04'0 0.0
2014-Oct-19 18:33N 49°17' W 123°04'0 0.0
2014-Oct-19 17:33N 49°17' W 123°04'0 0.0
2014-Oct-19 16:33N 49°17' W 123°04'0 0.0
2014-Oct-19 15:33N 49°17' W 123°04'0 0.0
2014-Oct-19 14:33N 49°17' W 123°04'0 0.0
2014-Oct-19 13:33N 49°17' W 123°04'0 0.0
2014-Oct-19 12:33N 49°17' W 123°04'0 0.0
2014-Oct-19 11:33N 49°17' W 123°04'0 0.0
2014-Oct-19 10:33N 49°17' W 123°04'0 0.0
2014-Oct-19 09:33N 49°17' W 123°04'0 0.0
2014-Oct-19 08:33N 49°17' W 123°04'0 0.0
2014-Oct-19 07:33N 49°17' W 123°04'0 0.0
2014-Oct-19 06:33N 49°17' W 123°04'0 0.0
2014-Oct-19 05:33N 49°17' W 123°04'0 0.0
2014-Oct-19 04:33N 49°17' W 123°04'0 0.0
2014-Oct-19 03:33N 49°17' W 123°04'0 0.0
2014-Oct-19 02:33N 49°17' W 123°04'0 0.0
2014-Oct-19 01:33N 49°17' W 123°04'0 0.0
2014-Oct-19 00:33N 49°17' W 123°04'0 0.0
2014-Oct-18 23:33N 49°17' W 123°04'0 0.0
2014-Oct-18 22:33N 49°17' W 123°04'0 0.0
2014-Oct-18 21:33N 49°17' W 123°04'0 0.0
2014-Oct-18 20:33N 49°17' W 123°04'0 0.0
2014-Oct-18 19:33N 49°17' W 123°04'0 0.0
2014-Oct-18 18:33N 49°17' W 123°04'0 0.0
2014-Oct-18 17:33N 49°17' W 123°04'0 0.0
2014-Oct-18 16:33N 49°17' W 123°04'0 0.0
2014-Oct-18 15:33N 49°17' W 123°04'0 0.0
2014-Oct-18 14:33N 49°17' W 123°04'0 0.0
2014-Oct-18 13:33N 49°17' W 123°04'0 0.0
2014-Oct-18 12:33N 49°17' W 123°04'0 0.0
2014-Oct-18 11:33N 49°17' W 123°04'0 0.0
2014-Oct-18 10:33N 49°17' W 123°04'0 0.0
2014-Oct-18 09:33N 49°17' W 123°04'0 0.0
2014-Oct-18 08:33N 49°17' W 123°04'0 0.0
2014-Oct-18 07:33N 49°17' W 123°04'0 0.0
2014-Oct-18 06:33N 49°17' W 123°04'0 0.0
2014-Oct-18 05:33N 49°17' W 123°04'0 0.0
2014-Oct-18 04:33N 49°17' W 123°04'0 0.0
2014-Oct-18 03:33N 49°17' W 123°04'0 0.0
2014-Oct-18 02:33N 49°17' W 123°04'0 0.0
2014-Oct-18 01:33N 49°17' W 123°04'0 0.0
2014-Oct-18 00:33N 49°17' W 123°04'0 0.0
2014-Oct-17 23:33N 49°17' W 123°04'0 0.0
2014-Oct-17 22:33N 49°17' W 123°04'0 0.0
2014-Oct-17 21:33N 49°17' W 123°04'0 0.0
2014-Oct-17 20:33N 49°17' W 123°04'0 0.0
2014-Oct-17 19:33N 49°17' W 123°04'0 0.0
2014-Oct-17 18:33N 49°17' W 123°04'0 0.0
2014-Oct-17 17:33N 49°17' W 123°04'0 0.0
2014-Oct-17 16:33N 49°17' W 123°04'0 0.0
2014-Oct-17 15:33N 49°17' W 123°04'0 0.0
2014-Oct-17 14:33N 49°17' W 123°04'0 0.0
2014-Oct-17 13:33N 49°17' W 123°04'0 0.0
2014-Oct-17 12:33N 49°17' W 123°04'0 0.0
2014-Oct-17 11:33N 49°17' W 123°04'0 0.0
2014-Oct-17 10:33N 49°17' W 123°04'0 0.0
2014-Oct-17 09:33N 49°17' W 123°04'0 0.0
2014-Oct-17 08:33N 49°17' W 123°04'0 0.0
2014-Oct-17 07:33N 49°17' W 123°04'0 0.0
2014-Oct-17 06:33N 49°17' W 123°04'0 0.0
2014-Oct-17 05:33N 49°17' W 123°04'0 0.0
2014-Oct-17 04:33N 49°17' W 123°04'0 0.0
2014-Oct-17 03:33N 49°17' W 123°04'0 0.0
2014-Oct-17 02:33N 49°17' W 123°04'0 0.0
2014-Oct-17 01:33N 49°17' W 123°04'0 0.0
2014-Oct-17 00:33N 49°17' W 123°04'0 0.0
2014-Oct-16 23:33N 49°17' W 123°04'0 0.0
2014-Oct-16 22:33N 49°17' W 123°04'0 0.0
2014-Oct-16 21:30N 49°17' W 123°04'0 0.0
2014-Oct-16 20:33N 49°17' W 123°04'0 0.0
2014-Oct-16 19:33N 49°17' W 123°04'2 2.4
2014-Oct-16 18:33N 49°18' W 123°07'2 2.2
2014-Oct-16 17:31N 49°18' W 123°11'0 0.0
2014-Oct-16 16:31N 49°18' W 123°11'0 0.1
2014-Oct-16 15:31N 49°18' W 123°11'0 0.0
2014-Oct-16 14:31N 49°18' W 123°11'0 0.1
2014-Oct-16 13:31N 49°18' W 123°11'0 0.0
2014-Oct-16 12:31N 49°18' W 123°11'0 0.0
2014-Oct-16 11:31N 49°18' W 123°11'0 0.0
2014-Oct-16 10:31N 49°18' W 123°11'0 0.0
2014-Oct-16 09:31N 49°18' W 123°11'0 0.0
2014-Oct-16 08:31N 49°18' W 123°11'0 0.0
2014-Oct-16 07:31N 49°18' W 123°11'0 0.1
2014-Oct-16 06:25N 49°18' W 123°11'0 0.0
2014-Oct-16 05:31N 49°18' W 123°11'0 0.0
2014-Oct-16 04:31N 49°18' W 123°11'0 0.0
2014-Oct-16 03:31N 49°18' W 123°11'0 0.0
2014-Oct-16 02:31N 49°18' W 123°11'0 0.0
2014-Oct-16 01:31N 49°18' W 123°11'0 0.1
2014-Oct-16 00:31N 49°18' W 123°11'0 0.1
2014-Oct-15 23:31N 49°18' W 123°11'0 0.1
2014-Oct-15 22:31N 49°18' W 123°11'0 0.0
2014-Oct-15 21:31N 49°18' W 123°11'0 0.0
2014-Oct-15 20:31N 49°18' W 123°11'0 0.0
2014-Oct-15 19:31N 49°18' W 123°11'0 0.1
2014-Oct-15 18:31N 49°18' W 123°11'0 0.1
2014-Oct-15 17:31N 49°18' W 123°11'0 0.0
2014-Oct-15 16:31N 49°18' W 123°11'0 0.0
2014-Oct-15 15:31N 49°18' W 123°11'0 0.0
2014-Oct-15 14:31N 49°18' W 123°11'0 0.1
2014-Oct-15 13:31N 49°18' W 123°11'0 0.1
2014-Oct-15 12:31N 49°18' W 123°11'0 0.1
2014-Oct-15 11:22N 49°18' W 123°11'0 0.0
2014-Oct-15 10:31N 49°18' W 123°11'0 0.1
2014-Oct-15 09:31N 49°18' W 123°11'0 0.0
2014-Oct-15 08:31N 49°18' W 123°11'0 0.0
2014-Oct-15 07:31N 49°18' W 123°11'0 0.1
2014-Oct-15 06:31N 49°18' W 123°11'0 0.0
2014-Oct-15 05:31N 49°18' W 123°11'0 0.0
2014-Oct-15 04:31N 49°18' W 123°11'0 0.0
2014-Oct-15 03:31N 49°18' W 123°11'0 0.0
2014-Oct-15 02:31N 49°18' W 123°11'0 0.0
2014-Oct-15 01:28N 49°18' W 123°11'0 0.2
2014-Oct-15 00:28N 49°18' W 123°11'0 0.1
2014-Oct-14 23:31N 49°18' W 123°11'0 0.0
2014-Oct-14 22:31N 49°18' W 123°11'0 0.1
2014-Oct-14 21:31N 49°18' W 123°11'0 0.0
2014-Oct-14 20:31N 49°18' W 123°11'0 0.0
2014-Oct-14 19:31N 49°18' W 123°11'0 0.0
2014-Oct-14 18:31N 49°18' W 123°11'0 0.0
2014-Oct-14 17:31N 49°18' W 123°11'0 0.1
2014-Oct-14 16:31N 49°18' W 123°11'0 0.1
2014-Oct-14 15:31N 49°18' W 123°11'0 0.0
2014-Oct-14 14:31N 49°18' W 123°11'0 0.1
2014-Oct-14 13:31N 49°18' W 123°11'0 0.1
2014-Oct-14 12:31N 49°18' W 123°11'0 0.1
2014-Oct-14 11:31N 49°18' W 123°11'0 0.1
2014-Oct-14 10:31N 49°18' W 123°11'0 0.0
2014-Oct-14 09:31N 49°18' W 123°11'0 0.0
2014-Oct-14 08:31N 49°18' W 123°11'0 0.0
2014-Oct-14 07:31N 49°18' W 123°11'0 0.1
2014-Oct-14 06:31N 49°18' W 123°11'0 0.0
2014-Oct-14 05:31N 49°18' W 123°11'0 0.1
2014-Oct-14 04:31N 49°18' W 123°11'0 0.1
2014-Oct-14 03:31N 49°18' W 123°11'0 0.1
2014-Oct-14 02:31N 49°18' W 123°11'0 0.0
2014-Oct-14 01:31N 49°18' W 123°11'0 0.0
2014-Oct-14 00:31N 49°18' W 123°11'0 0.0
2014-Oct-13 23:31N 49°18' W 123°11'0 0.0
2014-Oct-13 22:31N 49°18' W 123°11'0 0.0
2014-Oct-13 21:31N 49°18' W 123°11'0 0.0
2014-Oct-13 20:31N 49°18' W 123°11'0 0.0
2014-Oct-13 19:31N 49°18' W 123°11'0 0.0
2014-Oct-13 18:31N 49°18' W 123°11'0 0.1
2014-Oct-13 17:31N 49°18' W 123°11'0 0.1
2014-Oct-13 16:31N 49°18' W 123°11'0 0.1
2014-Oct-13 15:31N 49°18' W 123°11'0 0.0
2014-Oct-13 14:31N 49°18' W 123°11'0 0.0
2014-Oct-13 13:31N 49°18' W 123°11'0 0.0
2014-Oct-13 12:31N 49°18' W 123°11'0 0.0
2014-Oct-13 11:31N 49°18' W 123°11'0 0.1
2014-Oct-13 10:31N 49°18' W 123°11'0 0.1
2014-Oct-13 09:31N 49°18' W 123°11'0 0.0
2014-Oct-13 08:31N 49°18' W 123°11'0 0.1
2014-Oct-13 07:31N 49°18' W 123°11'0 0.0
2014-Oct-13 06:31N 49°18' W 123°11'0 0.0
2014-Oct-13 05:31N 49°18' W 123°11'0 0.0
2014-Oct-13 04:31N 49°18' W 123°11'0 0.0
2014-Oct-13 03:31N 49°18' W 123°11'0 0.1
2014-Oct-13 02:31N 49°18' W 123°11'0 0.0
2014-Oct-13 01:31N 49°18' W 123°11'0 0.0
2014-Oct-13 00:31N 49°18' W 123°11'0 0.0
2014-Oct-12 23:31N 49°18' W 123°11'0 0.1
2014-Oct-12 22:31N 49°18' W 123°11'0 0.2
2014-Oct-12 21:31N 49°18' W 123°11'0 0.0
2014-Oct-12 20:31N 49°18' W 123°11'0 0.1
2014-Oct-12 19:31N 49°18' W 123°11'0 0.0
2014-Oct-12 18:31N 49°18' W 123°11'0 0.0
2014-Oct-12 17:31N 49°18' W 123°11'0 0.1
2014-Oct-12 16:31N 49°18' W 123°11'0 0.1
2014-Oct-12 15:31N 49°18' W 123°11'0 0.0
2014-Oct-12 14:31N 49°18' W 123°11'0 0.0
2014-Oct-12 13:31N 49°18' W 123°11'0 0.0
2014-Oct-12 12:31N 49°18' W 123°11'0 0.0
2014-Oct-12 11:31N 49°18' W 123°11'0 0.0
2014-Oct-12 10:31N 49°18' W 123°11'0 0.0
2014-Oct-12 09:31N 49°18' W 123°11'0 0.1
2014-Oct-12 08:31N 49°18' W 123°11'0 0.1
2014-Oct-12 07:31N 49°18' W 123°11'0 0.1
2014-Oct-12 06:31N 49°18' W 123°11'0 0.1
2014-Oct-12 05:31N 49°18' W 123°11'0 0.1
2014-Oct-12 04:28N 49°18' W 123°11'0 0.0
2014-Oct-12 03:31N 49°18' W 123°11'0 0.0
2014-Oct-12 02:31N 49°18' W 123°11'0 0.0
2014-Oct-12 01:31N 49°18' W 123°11'  

Dump ship's entire track history